Hlavní strana
METAR-TAF:

METAR-TAF

Letiště :

Shelby County Airport

Alabaster, Alabama, Spojené státy americké

zeměpisná šířka: 33-10-42N, zeměpisná délka: 086-46-54W, výška: 178 m

Aktuální stav počasí

Zpráva byla vytvořena před 33 minutami, v 16:53 UTC
Severoseverozápadní vítr 6 kt
Teplota 7°C
Vlhkost vzduchu 70%
Tlak 1023 hPa
Viditelnost: 16.1 km
Polojasno ve výšce 5500 ft
Zataženo ve výšce 7000 ft

METAR: KEET 151653Z AUTO 34006KT 10SM SCT055 OVC070 07/02 A3022 RMK AO2 RAE25 SLP235 P0000 T00720022

Čas: 11:26 (17:26 UTC)

Předpověď počasí

Zpráva byla vytvořena před 6 hodinami a 4 minutami, v 11:22 UTC
Předpověď platná od 15 v 12 UTC do 16 v 12 UTC
Severní vítr 4 kt
Viditelnost: 10 km
Zataženo ve výšce 5000 ft
Od 15 v 1500 UTC
Severní vítr 8 kt
Viditelnost: 10 km
Zataženo ve výšce 8000 ft
Od 16 v 0200 UTC
Severní vítr 5 kt
Viditelnost: 10 km
Polojasno ve výšce 10000 ft

TAF: KEET 151122Z 1512/1612 36004KT P6SM OVC050 FM151500 36008KT P6SM OVC080 FM160200 35005KT P6SM SCT100

Stav a předpovědi počasí z více než 4 000 letišť (zprávy METAR a TAF).

Červené a žluté tečky na mapě představují dostupné meteorologické stanice.

Když kurzor umístíte na tečku, zobrazí se název stanice.

Pak kliknutím zobrazíte stav a předpověď počasí.

Chcete-li změnit mapu, kliknutím na zelené tlačítko se znaménkem +mapu přiblížíte, kliknutím na zelené tlačítko se znaménkem – mapu oddálíte a kliknutím na zelené šipky přejdete na sousední mapy.


METAR-TAF: